createdAt,value
2022-10-18T00:01:27.512Z,21.43
2022-10-18T00:04:30.826Z,21.60
2022-10-18T00:07:33.625Z,22.35
2022-10-18T00:10:37.026Z,19.70
2022-10-18T00:13:41.005Z,20.42
2022-10-18T00:16:44.421Z,20.60
2022-10-18T00:19:48.249Z,19.87
2022-10-18T00:22:51.661Z,19.92
2022-10-18T00:26:11.820Z,20.45
2022-10-18T00:29:16.277Z,20.27
2022-10-18T00:32:19.460Z,19.37
2022-10-18T00:35:22.463Z,19.58
2022-10-18T00:38:25.083Z,20.50
2022-10-18T00:41:33.056Z,18.17
2022-10-18T00:44:38.509Z,18.92
2022-10-18T00:47:43.546Z,18.70
2022-10-18T00:50:57.042Z,18.95
2022-10-18T00:54:00.821Z,18.80
2022-10-18T00:57:05.305Z,17.70
2022-10-18T01:00:13.044Z,18.40
2022-10-18T01:03:16.407Z,18.83
2022-10-18T01:06:20.131Z,17.67
2022-10-18T01:09:39.744Z,18.05
2022-10-18T01:13:24.835Z,16.98
2022-10-18T01:16:32.164Z,16.25
2022-10-18T01:20:09.339Z,17.13
2022-10-18T01:23:21.137Z,16.52
2022-10-18T01:26:42.260Z,17.15
2022-10-18T01:29:59.409Z,16.20
2022-10-18T01:33:34.316Z,15.93
2022-10-18T01:36:56.660Z,15.97
2022-10-18T01:40:03.687Z,15.70
2022-10-18T01:43:10.261Z,15.75
2022-10-18T01:46:18.713Z,15.77
2022-10-18T01:49:21.742Z,16.65
2022-10-18T01:52:25.091Z,16.07
2022-10-18T01:55:39.081Z,15.57
2022-10-18T01:58:49.006Z,16.45
2022-10-18T02:02:10.834Z,15.95
2022-10-18T02:05:19.375Z,15.95
2022-10-18T02:08:35.393Z,16.17
2022-10-18T02:11:42.761Z,16.98
2022-10-18T02:14:46.067Z,16.75
2022-10-18T02:17:48.877Z,15.65
2022-10-18T02:20:52.126Z,17.15
2022-10-18T02:23:56.987Z,15.30
2022-10-18T02:26:59.901Z,16.83
2022-10-18T02:30:05.043Z,16.70
2022-10-18T02:33:15.418Z,18.08
2022-10-18T02:36:41.259Z,18.25
2022-10-18T02:39:50.281Z,16.57
2022-10-18T02:42:59.077Z,16.73
2022-10-18T02:46:02.161Z,17.52
2022-10-18T02:49:05.977Z,17.85
2022-10-18T02:52:09.602Z,20.33
2022-10-18T02:55:13.981Z,19.13
2022-10-18T02:58:16.802Z,18.30
2022-10-18T03:01:20.091Z,19.35
2022-10-18T03:04:23.162Z,18.42
2022-10-18T03:07:26.518Z,18.55
2022-10-18T03:10:29.153Z,16.97
2022-10-18T03:13:34.305Z,17.15
2022-10-18T03:16:37.085Z,17.08
2022-10-18T03:19:40.543Z,16.98
2022-10-18T03:22:43.552Z,17.48
2022-10-18T03:25:46.642Z,17.40
2022-10-18T03:28:50.421Z,17.60
2022-10-18T03:31:55.144Z,17.33
2022-10-18T03:35:01.238Z,17.85
2022-10-18T03:38:04.306Z,17.02
2022-10-18T03:41:09.363Z,15.43
2022-10-18T03:44:12.485Z,16.67
2022-10-18T03:47:15.149Z,18.58
2022-10-18T03:50:18.737Z,17.67
2022-10-18T03:53:23.171Z,16.55
2022-10-18T03:56:26.676Z,16.83
2022-10-18T03:59:29.468Z,18.17
2022-10-18T04:02:32.722Z,18.65
2022-10-18T04:05:36.750Z,18.85
2022-10-18T04:08:42.015Z,18.98
2022-10-18T04:11:45.453Z,18.90
2022-10-18T04:14:49.043Z,17.67
2022-10-18T04:17:52.000Z,18.85
2022-10-18T04:20:56.952Z,17.42
2022-10-18T04:24:00.189Z,20.35
2022-10-18T04:27:05.024Z,19.37
2022-10-18T04:30:09.203Z,17.85
2022-10-18T04:33:15.392Z,18.92
2022-10-18T04:36:22.119Z,19.62
2022-10-18T04:39:26.251Z,19.92
2022-10-18T04:42:30.302Z,19.53
2022-10-18T04:45:35.708Z,19.45
2022-10-18T04:48:38.728Z,18.25
2022-10-18T04:51:41.810Z,18.17
2022-10-18T04:54:45.141Z,18.52
2022-10-18T04:57:49.311Z,19.63
2022-10-18T05:00:54.946Z,17.67
2022-10-18T05:04:01.337Z,18.83
2022-10-18T05:07:06.996Z,18.90
2022-10-18T05:10:11.022Z,19.35
2022-10-18T05:13:17.274Z,18.47
2022-10-18T05:16:20.280Z,18.08
2022-10-18T05:19:24.074Z,19.30
2022-10-18T05:22:28.691Z,18.37
2022-10-18T05:25:32.037Z,19.25
2022-10-18T05:28:40.451Z,17.80
2022-10-18T05:31:44.665Z,17.20
2022-10-18T05:34:47.729Z,17.25
2022-10-18T05:37:50.829Z,16.67
2022-10-18T05:40:55.387Z,18.20
2022-10-18T05:43:58.750Z,17.53
2022-10-18T05:47:07.367Z,16.12
2022-10-18T05:50:13.539Z,18.58
2022-10-18T05:53:35.896Z,18.60
2022-10-18T05:56:41.079Z,18.12
2022-10-18T05:59:45.900Z,16.63
2022-10-18T06:02:50.007Z,15.40
2022-10-18T06:06:11.091Z,15.70
2022-10-18T06:09:15.138Z,14.98
2022-10-18T06:12:19.291Z,15.63
2022-10-18T06:15:22.483Z,15.37
2022-10-18T06:18:25.909Z,14.50
2022-10-18T06:21:28.683Z,15.57
2022-10-18T06:24:32.184Z,15.25
2022-10-18T06:27:36.609Z,14.93
2022-10-18T06:30:41.816Z,15.07
2022-10-18T06:34:15.917Z,14.98
2022-10-18T06:42:47.690Z,13.15
2022-10-18T06:46:24.888Z,14.02
2022-10-18T06:49:29.753Z,13.30
2022-10-18T06:52:33.203Z,13.30
2022-10-18T06:55:36.418Z,13.13
2022-10-18T06:58:39.993Z,12.88
2022-10-18T07:01:45.197Z,13.20
2022-10-18T07:04:50.543Z,12.60
2022-10-18T07:07:56.536Z,13.20
2022-10-18T07:11:02.409Z,13.02
2022-10-18T07:14:20.801Z,13.27
2022-10-18T07:17:24.711Z,14.55
2022-10-18T07:20:29.679Z,12.87
2022-10-18T07:23:37.702Z,13.05
2022-10-18T07:27:14.055Z,11.82
2022-10-18T07:30:40.761Z,11.40
2022-10-18T07:33:52.647Z,11.80
2022-10-18T07:36:56.622Z,12.17
2022-10-18T07:40:00.896Z,11.50
2022-10-18T07:43:42.196Z,11.85
2022-10-18T07:47:19.016Z,10.77
2022-10-18T07:51:17.627Z,11.45
2022-10-18T07:54:26.059Z,10.83
2022-10-18T07:57:33.490Z,10.77
2022-10-18T08:00:42.542Z,10.45
2022-10-18T08:04:04.585Z,10.90
2022-10-18T08:07:10.091Z,11.38
2022-10-18T08:11:14.026Z,10.10
2022-10-18T08:14:42.952Z,10.43
2022-10-18T08:17:46.168Z,10.43
2022-10-18T08:20:49.117Z,10.88
2022-10-18T08:23:54.241Z,9.85
2022-10-18T08:26:57.349Z,10.30
2022-10-18T08:30:02.963Z,9.95
2022-10-18T08:33:07.037Z,9.90
2022-10-18T08:36:13.040Z,10.00
2022-10-18T08:39:17.134Z,11.77
2022-10-18T08:42:40.030Z,10.37
2022-10-18T08:45:45.195Z,9.43
2022-10-18T08:48:55.666Z,8.93
2022-10-18T08:52:00.121Z,9.57
2022-10-18T08:55:14.970Z,10.43
2022-10-18T08:58:17.746Z,10.30
2022-10-18T09:02:02.316Z,9.93
2022-10-18T09:05:21.783Z,9.07
2022-10-18T09:08:41.422Z,8.95
2022-10-18T09:12:07.858Z,9.52
2022-10-18T09:15:29.947Z,8.13
2022-10-18T09:19:20.275Z,7.47
2022-10-18T09:22:54.992Z,8.90
2022-10-18T09:26:15.711Z,8.43
2022-10-18T09:29:37.992Z,8.75
2022-10-18T09:32:43.876Z,9.53
2022-10-18T09:35:55.571Z,9.65
2022-10-18T09:39:05.700Z,8.23
2022-10-18T09:42:19.616Z,8.32
2022-10-18T09:45:31.402Z,9.18
2022-10-18T09:48:52.867Z,8.80
2022-10-18T09:52:01.097Z,7.22
2022-10-18T09:55:15.710Z,7.68
2022-10-18T09:58:37.316Z,7.40
2022-10-18T10:01:40.901Z,8.05
2022-10-18T10:04:45.029Z,8.27
2022-10-18T10:07:49.854Z,7.35
2022-10-18T10:10:53.940Z,6.35
2022-10-18T10:14:10.980Z,6.43
2022-10-18T10:17:25.925Z,6.80
2022-10-18T10:20:45.896Z,6.83
2022-10-18T10:24:01.107Z,6.50
2022-10-18T10:27:07.418Z,5.95
2022-10-18T10:30:30.296Z,6.12
2022-10-18T10:33:36.338Z,5.35
2022-10-18T10:37:41.282Z,5.73
2022-10-18T10:40:53.136Z,5.87
2022-10-18T10:43:56.998Z,5.57
2022-10-18T10:47:04.005Z,5.10
2022-10-18T10:50:13.029Z,6.07
2022-10-18T10:53:27.586Z,5.60
2022-10-18T10:56:38.040Z,5.60
2022-10-18T11:00:03.062Z,5.40
2022-10-18T11:03:29.452Z,5.65
2022-10-18T11:07:02.804Z,5.72
2022-10-18T11:10:10.193Z,5.83
2022-10-18T11:13:16.319Z,6.20
2022-10-18T11:16:54.929Z,5.70
2022-10-18T11:20:09.986Z,6.18
2022-10-18T11:23:17.117Z,5.60
2022-10-18T11:26:53.791Z,4.90
2022-10-18T11:30:19.653Z,5.40
2022-10-18T11:34:08.327Z,5.32
2022-10-18T11:37:36.051Z,5.43
2022-10-18T11:40:54.692Z,5.05
2022-10-18T11:44:04.341Z,5.77
2022-10-18T11:47:15.161Z,5.60
2022-10-18T11:50:45.006Z,5.40
2022-10-18T11:54:12.226Z,4.95
2022-10-18T11:57:26.199Z,5.72
2022-10-18T12:00:41.376Z,4.90
2022-10-18T12:04:22.034Z,4.68
2022-10-18T12:07:35.062Z,4.35
2022-10-18T12:11:06.241Z,4.07
2022-10-18T12:14:38.449Z,4.57
2022-10-18T12:17:50.240Z,4.10
2022-10-18T12:20:59.024Z,4.12
2022-10-18T12:24:13.105Z,3.78
2022-10-18T12:27:27.020Z,4.15
2022-10-18T12:30:52.574Z,4.00
2022-10-18T12:33:59.071Z,4.10
2022-10-18T12:37:16.519Z,3.72
2022-10-18T12:40:32.206Z,4.22
2022-10-18T12:43:40.022Z,4.30
2022-10-18T12:46:50.311Z,4.60
2022-10-18T12:50:06.177Z,4.30
2022-10-18T12:53:09.761Z,3.70
2022-10-18T12:56:38.415Z,3.87
2022-10-18T12:59:44.234Z,4.10
2022-10-18T13:03:15.048Z,4.12
2022-10-18T13:06:19.430Z,3.70
2022-10-18T13:09:22.751Z,3.97
2022-10-18T13:12:31.042Z,4.18
2022-10-18T13:15:54.089Z,4.20
2022-10-18T13:19:15.984Z,4.10
2022-10-18T13:22:54.929Z,3.87
2022-10-18T13:26:24.965Z,3.85
2022-10-18T13:29:56.641Z,3.72
2022-10-18T13:33:32.303Z,3.90
2022-10-18T13:36:36.730Z,4.50
2022-10-18T13:39:45.321Z,3.90
2022-10-18T13:42:53.778Z,3.92
2022-10-18T13:46:03.093Z,3.95
2022-10-18T13:49:44.466Z,4.20
2022-10-18T13:53:23.046Z,4.07
2022-10-18T13:56:57.724Z,3.63
2022-10-18T14:00:24.680Z,4.85
2022-10-18T14:03:58.960Z,3.95
2022-10-18T14:07:06.197Z,3.47
2022-10-18T14:11:02.805Z,4.47
2022-10-18T14:14:34.546Z,4.50
2022-10-18T14:17:49.224Z,4.10
2022-10-18T14:21:13.413Z,4.78
2022-10-18T14:24:23.734Z,4.43
2022-10-18T14:27:33.465Z,4.30
2022-10-18T14:30:52.981Z,4.70
2022-10-18T14:34:05.080Z,4.28
2022-10-18T14:37:22.266Z,4.70
2022-10-18T14:40:40.111Z,4.47
2022-10-18T14:44:20.421Z,5.32
2022-10-18T14:47:30.665Z,5.20
2022-10-18T14:50:47.034Z,4.95
2022-10-18T14:53:52.509Z,4.93
2022-10-18T14:57:03.699Z,4.93
2022-10-18T15:00:22.040Z,5.43
2022-10-18T15:03:32.454Z,5.47
2022-10-18T15:06:48.550Z,5.20
2022-10-18T15:09:54.165Z,6.50
2022-10-18T15:13:11.159Z,6.22
2022-10-18T15:16:22.096Z,6.00
2022-10-18T15:20:06.154Z,5.53
2022-10-18T15:23:28.525Z,5.43
2022-10-18T15:26:48.022Z,5.53
2022-10-18T15:29:54.127Z,6.25
2022-10-18T15:33:11.230Z,6.10
2022-10-18T15:36:30.068Z,6.07
2022-10-18T15:39:46.011Z,5.65
2022-10-18T15:43:03.571Z,6.45
2022-10-18T15:46:32.136Z,6.60
2022-10-18T15:49:53.072Z,7.23
2022-10-18T15:53:27.199Z,12.13
2022-10-18T15:56:36.268Z,14.10
2022-10-18T16:00:02.382Z,15.55
2022-10-18T16:03:21.053Z,13.65
2022-10-18T16:06:38.136Z,13.83
2022-10-18T16:09:49.299Z,26.57
2022-10-18T16:12:59.456Z,20.92
2022-10-18T16:20:28.094Z,24.40
2022-10-18T16:23:45.120Z,25.63
2022-10-18T16:26:54.343Z,28.67
2022-10-18T16:30:48.287Z,26.05
2022-10-18T16:37:31.280Z,23.23
2022-10-18T16:40:41.289Z,20.57
2022-10-18T16:43:56.631Z,17.50
2022-10-18T16:47:02.401Z,22.75
2022-10-18T16:50:08.989Z,19.10
2022-10-18T16:53:24.036Z,24.10
2022-10-18T16:56:30.667Z,23.33
2022-10-18T16:59:50.113Z,21.83
2022-10-18T17:03:04.072Z,21.62
2022-10-18T17:10:19.098Z,20.33
2022-10-18T17:13:47.021Z,19.70
2022-10-18T17:17:14.561Z,18.87
2022-10-18T17:20:43.966Z,20.35
2022-10-18T17:24:33.171Z,23.85
2022-10-18T17:27:43.029Z,26.10
2022-10-18T17:30:57.366Z,26.40
2022-10-18T17:34:02.277Z,25.13
2022-10-18T17:37:18.251Z,25.00
2022-10-18T17:40:30.257Z,27.20
2022-10-18T17:43:48.512Z,28.08
2022-10-18T17:46:54.026Z,29.37
2022-10-18T17:50:01.183Z,30.67
2022-10-18T17:53:13.262Z,30.92
2022-10-18T17:56:32.999Z,31.50
2022-10-18T17:59:42.204Z,31.37
2022-10-18T18:02:49.160Z,32.73
2022-10-18T18:06:40.866Z,31.47
2022-10-18T18:09:45.996Z,30.12
2022-10-18T18:13:00.239Z,30.58
2022-10-18T18:16:20.587Z,35.33
2022-10-18T18:19:28.823Z,43.70
2022-10-18T18:22:41.747Z,42.57
2022-10-18T18:26:03.044Z,35.90
2022-10-18T18:29:08.969Z,32.63
2022-10-18T18:32:17.264Z,35.42
2022-10-18T18:35:25.731Z,36.27
2022-10-18T18:38:35.125Z,42.67
2022-10-18T18:41:46.929Z,46.95
2022-10-18T18:44:52.653Z,45.22
2022-10-18T18:48:05.755Z,48.53
2022-10-18T18:52:22.172Z,47.30
2022-10-18T18:55:55.068Z,44.03
2022-10-18T18:59:16.230Z,43.00
2022-10-18T19:02:33.787Z,42.15
2022-10-18T19:06:29.606Z,43.45
2022-10-18T19:09:54.109Z,46.43
2022-10-18T19:18:23.183Z,42.72
2022-10-18T19:22:02.837Z,48.33
2022-10-18T19:33:48.830Z,38.57
2022-10-18T19:37:16.234Z,38.17
2022-10-18T19:40:34.000Z,38.90
2022-10-18T19:43:38.667Z,39.15
2022-10-18T19:46:50.030Z,39.07
2022-10-18T19:49:55.593Z,36.90
2022-10-18T19:56:24.412Z,37.17
2022-10-18T19:59:28.188Z,35.92
2022-10-18T20:02:34.394Z,36.63
2022-10-18T20:05:41.603Z,36.43
2022-10-18T20:08:47.352Z,37.13
2022-10-18T20:12:02.732Z,37.63
2022-10-18T20:15:18.530Z,37.03
2022-10-18T20:18:23.866Z,37.97
2022-10-18T20:21:32.049Z,37.30
2022-10-18T20:24:42.995Z,40.88
2022-10-18T20:27:46.573Z,46.70
2022-10-18T20:31:04.744Z,44.80
2022-10-18T20:34:12.141Z,41.63
2022-10-18T20:37:17.342Z,42.40
2022-10-18T20:40:21.971Z,41.08
2022-10-18T20:43:29.017Z,40.00
2022-10-18T20:46:37.030Z,41.20
2022-10-18T20:49:40.000Z,41.87
2022-10-18T20:52:43.906Z,45.00
2022-10-18T20:55:49.966Z,41.37
2022-10-18T20:59:02.075Z,38.60
2022-10-18T21:02:13.099Z,39.35
2022-10-18T21:05:18.969Z,42.90
2022-10-18T21:08:22.447Z,39.87
2022-10-18T21:11:26.162Z,40.05
2022-10-18T21:14:29.096Z,40.10
2022-10-18T21:17:31.960Z,41.22
2022-10-18T21:20:42.125Z,40.27
2022-10-18T21:23:47.352Z,38.10
2022-10-18T21:26:52.226Z,38.78
2022-10-18T21:29:55.046Z,39.10
2022-10-18T21:32:58.231Z,39.17
2022-10-18T21:36:04.996Z,41.23
2022-10-18T21:39:14.003Z,38.80
2022-10-18T21:42:18.220Z,37.00
2022-10-18T21:45:21.166Z,35.05
2022-10-18T21:48:24.778Z,35.80
2022-10-18T21:51:29.007Z,34.30
2022-10-18T21:54:32.131Z,35.73
2022-10-18T22:00:43.563Z,34.40
2022-10-18T22:03:49.508Z,35.17
2022-10-18T22:06:53.308Z,33.63
2022-10-18T22:09:56.171Z,34.43
2022-10-18T22:13:00.048Z,35.47
2022-10-18T22:16:05.595Z,34.35
2022-10-18T22:19:08.418Z,35.00
2022-10-18T22:22:18.235Z,37.43
2022-10-18T22:25:22.421Z,36.90
2022-10-18T22:28:25.671Z,37.95
2022-10-18T22:31:33.055Z,36.60
2022-10-18T22:34:35.838Z,35.53
2022-10-18T22:37:39.700Z,39.07
2022-10-18T22:40:44.617Z,36.60
2022-10-18T22:43:47.863Z,34.80
2022-10-18T22:46:51.480Z,34.92
2022-10-18T22:49:54.999Z,33.83
2022-10-18T22:52:57.920Z,34.63
2022-10-18T22:56:00.690Z,33.97
2022-10-18T22:59:03.782Z,33.78
2022-10-18T23:02:06.493Z,34.90
2022-10-18T23:05:09.659Z,31.60
2022-10-18T23:08:14.979Z,33.97
2022-10-18T23:11:19.788Z,34.40
2022-10-18T23:14:23.424Z,33.50
2022-10-18T23:17:28.268Z,32.85
2022-10-18T23:20:31.823Z,31.87
2022-10-18T23:23:37.143Z,34.17
2022-10-18T23:26:39.781Z,31.87
2022-10-18T23:29:43.884Z,31.95
2022-10-18T23:32:46.903Z,33.17
2022-10-18T23:35:50.348Z,34.03
2022-10-18T23:38:53.570Z,32.90
2022-10-18T23:41:57.081Z,31.20
2022-10-18T23:45:00.005Z,31.52
2022-10-18T23:48:03.071Z,31.77
2022-10-18T23:51:08.633Z,32.45
2022-10-18T23:54:11.687Z,33.07
2022-10-18T23:57:14.301Z,31.77
